Baltic, Connecticut
Current Conditions -  °F | °C
As of 4:52 AM on Monday 24 Nov 2014 (Local Time) from KIJD Reporting Station
Moderate Rain Moderate Rain  
Wind Chill: 56°   Ceiling: 700
Heat Index: 56°   Visibility: 5mi
Dew Point: 54°   Wind: 8mph
Humidity: 93%   Direction: 150°SSE
Pressure: 29.87"   Gusts: NA
Location:  41.62°N, 72.08°W
Report Text: KIJD 240952Z AUTO 15007KT 5SM RA BR BKN007 OVC012 13/12 A2987 RMK AO2 CIG 004V011 SLP115 P0008 T01330122
Loading
Personal Weather Stations






























Interactive Weather Map New forecast layout! Learn more

10-Day Weather Forecast

Advertisements
Track Severe Weather on mobile